ZBAD Airport Information

Runway Information
Airport Frequencies
Airport Navaids
Airport Weather Information & NOTAM
ADDS - METARS form results

(2041 UTC 07 March 2021)
Data provider http://aviationweather.gov/metar/data/
 
METAR text: ZBAD 072030Z 17001MPS CAVOK M02/M04 Q1027 NOSIG
Conditions at: ZBAD (BEIJING/DAXING , CN) observed 2030 UTC 07 March 2021
Temperature: -2.0°C (28°F)
Dewpoint: -4.0°C (25°F) [RH = 86%]
Pressure (altimeter): 30.32 inches Hg (1027.0 mb)
Winds: from the S (170 degrees) at 2 MPH (2 knots; 1.0 m/s)
Visibility: 6 or more miles (10+ km)
Ceiling: ceiling and visibility are OK
Clouds: unknown
Weather: no significant weather observed at this time

METAR text: ZBAD 072000Z 16001MPS CAVOK M01/M04 Q1027 NOSIG
Conditions at: ZBAD (BEIJING/DAXING , CN) observed 2000 UTC 07 March 2021
Temperature: -1.0°C (30°F)
Dewpoint: -4.0°C (25°F) [RH = 80%]
Pressure (altimeter): 30.32 inches Hg (1027.0 mb)
Winds: from the SSE (160 degrees) at 2 MPH (2 knots; 1.0 m/s)
Visibility: 6 or more miles (10+ km)
Ceiling: ceiling and visibility are OK
Clouds: unknown
Weather: no significant weather observed at this time

Forecast for: ZBAD (BEIJING/DAXING , CN)
Text: TAF ZBAD 071500Z 0718/0818 20004MPS CAVOK TX11/0807Z TNM02/0721Z
Forecast period: 1800 UTC 07 March 2021 to 1800 UTC 08 March 2021
Forecast type: FROM: standard forecast or significant change
Winds: from the SSW (200 degrees) at 9 MPH (8 knots; 4.1 m/s)
Visibility: 6 or more miles (10+ km)
Ceiling: unknown
Clouds: missing
Weather: no significant weather forecast for this period